Time;durP1;ratioP1;P1;durP2;ratioP2;P2;SDS_P1;SDS_P2;PMS_P1;PMS_P2;Temp;Humidity;BMP_temperature;BMP_pressure;BME280_temperature;BME280_humidity;BME280_pressure;Samples;Min_cycle;Max_cycle;Signal;HPM_P1;HPM_P2
2022/12/05 00:01:33;;;;;;;22.67;10.70;;;1.80;99.90;;;;;;5027724;28;20520;-58
2022/12/05 00:04:02;;;;;;;22.20;10.73;;;1.80;99.90;;;;;;5027926;28;20422;-57
2022/12/05 00:06:29;;;;;;;23.10;11.00;;;1.80;99.90;;;;;;5027775;28;20445;-58
2022/12/05 00:08:55;;;;;;;17.77;9.07;;;1.80;99.90;;;;;;5010005;28;20436;-58
2022/12/05 00:11:24;;;;;;;21.93;9.23;;;1.80;99.90;;;;;;5028485;28;20476;-58
2022/12/05 00:13:51;;;;;;;18.30;9.40;;;1.80;99.90;;;;;;5028742;28;20493;-59
2022/12/05 00:16:20;;;;;;;17.20;8.60;;;1.80;99.90;;;;;;5026744;28;20501;-58
2022/12/05 00:18:46;;;;;;;14.60;8.57;;;1.90;99.90;;;;;;5028301;28;20960;-57
2022/12/05 00:21:18;;;;;;;17.17;8.13;;;1.80;99.90;;;;;;5029333;28;20457;-57
2022/12/05 00:23:44;;;;;;;17.17;8.13;;;1.90;99.90;;;;;;5028172;28;20567;-57
2022/12/05 00:26:10;;;;;;;15.30;8.30;;;1.90;99.90;;;;;;5027788;28;20456;-58
2022/12/05 00:28:36;;;;;;;17.77;8.67;;;1.90;99.90;;;;;;5026055;28;20843;-58
2022/12/05 00:31:04;;;;;;;14.30;8.20;;;1.90;99.90;;;;;;5025180;28;20460;-58
2022/12/05 00:33:29;;;;;;;14.23;7.77;;;1.80;99.90;;;;;;5028406;28;20454;-57
2022/12/05 00:35:59;;;;;;;14.13;7.93;;;1.80;99.90;;;;;;5022371;28;20453;-58
2022/12/05 00:38:25;;;;;;;17.80;8.73;;;1.80;99.90;;;;;;5009715;28;20186;-58
2022/12/05 00:40:50;;;;;;;14.47;8.13;;;1.90;99.90;;;;;;5025714;28;20426;-58
2022/12/05 00:43:16;;;;;;;16.13;8.13;;;1.90;99.90;;;;;;5026945;28;20599;-57
2022/12/05 00:45:41;;;;;;;11.80;7.27;;;1.80;99.90;;;;;;5020078;28;20177;-56
2022/12/05 00:48:07;;;;;;;15.00;8.30;;;1.90;99.90;;;;;;5030124;28;20597;-58
2022/12/05 00:50:33;;;;;;;14.87;7.43;;;1.90;99.90;;;;;;5030513;28;20182;-58
2022/12/05 00:52:58;;;;;;;12.80;7.63;;;1.90;99.90;;;;;;5025231;28;20200;-58
2022/12/05 00:55:24;;;;;;;11.97;7.10;;;1.90;99.90;;;;;;5024865;28;20177;-58
2022/12/05 00:57:49;;;;;;;12.13;7.20;;;1.90;99.90;;;;;;5030330;28;20683;-58
2022/12/05 01:00:15;;;;;;;9.77;7.17;;;1.90;99.90;;;;;;5025576;28;20225;-57
2022/12/05 01:02:41;;;;;;;12.47;7.20;;;1.90;99.90;;;;;;5022773;28;20172;-58
2022/12/05 01:05:07;;;;;;;14.20;7.40;;;1.90;99.90;;;;;;5030360;28;20417;-59
2022/12/05 01:07:32;;;;;;;12.37;7.40;;;1.90;99.90;;;;;;5023759;28;20199;-57
2022/12/05 01:09:58;;;;;;;16.30;7.00;;;1.90;99.90;;;;;;5029075;28;20251;-57
2022/12/05 01:12:24;;;;;;;15.93;7.10;;;1.90;99.90;;;;;;5024933;28;20680;-58
2022/12/05 01:14:49;;;;;;;10.80;6.03;;;1.90;99.90;;;;;;5030311;28;20324;-58
2022/12/05 01:17:15;;;;;;;12.73;7.20;;;1.90;99.90;;;;;;5027372;28;20203;-58
2022/12/05 01:19:40;;;;;;;11.87;6.47;;;1.90;99.90;;;;;;5026781;28;20757;-57
2022/12/05 01:22:06;;;;;;;11.53;6.40;;;1.90;99.90;;;;;;5008280;28;20182;-57
2022/12/05 01:24:32;;;;;;;14.70;6.83;;;1.90;99.90;;;;;;5027219;28;20176;-58
2022/12/05 01:26:57;;;;;;;12.20;7.33;;;1.90;99.90;;;;;;5031736;28;20275;-58
2022/12/05 01:29:24;;;;;;;11.70;6.43;;;1.90;99.90;;;;;;5022520;28;20258;-58
2022/12/05 01:31:51;;;;;;;14.93;6.70;;;1.90;99.90;;;;;;5024482;28;20633;-58
2022/12/05 01:34:17;;;;;;;12.37;6.70;;;1.90;99.90;;;;;;5029158;28;20466;-59
2022/12/05 01:36:43;;;;;;;13.23;7.47;;;1.90;99.90;;;;;;5015009;28;20564;-59
2022/12/05 01:39:10;;;;;;;9.90;6.30;;;1.90;99.90;;;;;;5027901;28;20464;-58
2022/12/05 01:41:40;;;;;;;11.23;6.37;;;1.90;99.90;;;;;;5028457;28;20425;-59
2022/12/05 01:44:07;;;;;;;13.30;7.03;;;2.00;99.90;;;;;;5029244;28;20415;-59
2022/12/05 01:46:35;;;;;;;16.23;7.73;;;2.00;99.90;;;;;;5026150;28;20455;-58
2022/12/05 01:49:14;;;;;;;14.23;7.50;;;1.90;99.90;;;;;;5020470;28;20427;-58
2022/12/05 01:51:43;;;;;;;14.73;7.70;;;2.00;99.90;;;;;;5025583;28;20465;-58
2022/12/05 01:54:10;;;;;;;14.77;8.13;;;1.90;99.90;;;;;;5029586;28;20469;-58
2022/12/05 01:56:38;;;;;;;12.90;7.70;;;2.00;99.90;;;;;;5028517;28;20549;-58
2022/12/05 01:59:07;;;;;;;13.43;7.37;;;2.00;99.90;;;;;;5033439;28;20410;-58
2022/12/05 02:01:33;;;;;;;14.30;7.70;;;2.00;99.90;;;;;;5029326;28;20443;-56
2022/12/05 02:03:59;;;;;;;14.80;7.93;;;2.00;99.90;;;;;;5032993;28;20779;-57
2022/12/05 02:06:26;;;;;;;12.87;7.93;;;2.00;99.90;;;;;;5028186;28;20450;-58
2022/12/05 02:08:52;;;;;;;17.37;8.43;;;2.00;99.90;;;;;;5012074;28;20180;-58
2022/12/05 02:11:19;;;;;;;16.23;8.90;;;2.00;99.90;;;;;;5031535;28;20449;-58
2022/12/05 02:13:58;;;;;;;14.40;7.97;;;2.00;99.90;;;;;;5031203;28;20450;-58
2022/12/05 02:16:39;;;;;;;16.07;8.00;;;2.10;99.90;;;;;;5025588;28;20451;-57
2022/12/05 02:19:35;;;;;;;14.53;7.77;;;2.10;99.90;;;;;;5031566;28;20489;-57
2022/12/05 02:22:30;;;;;;;15.60;8.37;;;2.00;99.90;;;;;;5021483;28;20422;-57
2022/12/05 02:25:13;;;;;;;13.17;8.30;;;2.10;99.90;;;;;;5028204;28;20438;-57
2022/12/05 02:27:57;;;;;;;12.80;7.17;;;2.10;99.90;;;;;;5029577;28;20465;-58
2022/12/05 02:30:24;;;;;;;15.07;7.60;;;2.10;99.90;;;;;;5023978;28;20444;-57
2022/12/05 02:32:50;;;;;;;16.03;7.80;;;2.10;99.90;;;;;;5028357;28;20434;-57
2022/12/05 02:35:58;;;;;;;13.00;6.73;;;2.10;99.90;;;;;;5009056;28;20438;-58
2022/12/05 02:38:36;;;;;;;11.30;6.43;;;2.10;99.90;;;;;;5018538;28;20192;-58
2022/12/05 02:41:20;;;;;;;15.17;7.57;;;2.10;99.90;;;;;;5028337;28;20488;-57
2022/12/05 02:43:54;;;;;;;15.30;6.87;;;2.10;99.90;;;;;;5021053;28;20421;-57
2022/12/05 02:46:27;;;;;;;12.20;7.30;;;2.10;99.90;;;;;;5020305;28;20687;-57
2022/12/05 02:49:01;;;;;;;13.73;7.13;;;2.10;99.90;;;;;;5025641;28;20429;-57
2022/12/05 02:51:31;;;;;;;14.60;8.17;;;2.20;99.90;;;;;;5025190;28;20558;-57
2022/12/05 02:54:01;;;;;;;12.20;7.53;;;2.20;99.90;;;;;;5018523;28;20466;-58
2022/12/05 02:56:28;;;;;;;15.27;6.63;;;2.20;99.90;;;;;;5024479;28;20639;-57
2022/12/05 02:58:55;;;;;;;14.77;8.00;;;2.20;99.90;;;;;;5022681;28;20425;-56
2022/12/05 03:01:23;;;;;;;14.53;8.10;;;2.10;99.90;;;;;;5024018;28;20435;-57
2022/12/05 03:03:49;;;;;;;15.63;7.90;;;2.20;99.90;;;;;;5029931;28;20421;-57
2022/12/05 03:06:22;;;;;;;14.20;7.30;;;2.20;99.90;;;;;;5025234;28;20449;-57
2022/12/05 03:09:05;;;;;;;18.20;9.00;;;2.20;99.90;;;;;;5027633;28;20437;-57
2022/12/05 03:11:43;;;;;;;17.53;8.80;;;2.20;99.90;;;;;;5011682;28;20510;-57
2022/12/05 03:14:14;;;;;;;14.57;8.60;;;2.20;99.90;;;;;;5023883;28;20463;-57
2022/12/05 03:16:47;;;;;;;17.17;8.70;;;2.20;99.90;;;;;;5028049;28;20457;-56
2022/12/05 03:19:25;;;;;;;13.47;7.83;;;2.20;99.90;;;;;;5027810;28;20446;-58
2022/12/05 03:22:02;;;;;;;18.23;9.80;;;2.20;99.90;;;;;;5026394;28;20798;-58
2022/12/05 03:24:29;;;;;;;19.30;9.10;;;2.20;99.90;;;;;;5028755;28;20457;-57
2022/12/05 03:27:00;;;;;;;17.97;8.70;;;2.20;99.90;;;;;;5029394;28;20804;-58
2022/12/05 03:29:30;;;;;;;15.30;8.13;;;2.20;99.90;;;;;;5011654;28;20446;-58
2022/12/05 03:32:04;;;;;;;13.40;8.43;;;2.20;99.90;;;;;;5027208;28;20433;-57
2022/12/05 03:34:30;;;;;;;16.50;8.80;;;2.20;99.90;;;;;;5026283;28;20505;-57
2022/12/05 03:36:57;;;;;;;16.77;8.90;;;2.20;99.90;;;;;;5029108;28;21023;-59
2022/12/05 03:39:27;;;;;;;20.53;9.57;;;2.20;99.90;;;;;;5021000;28;20172;-57
2022/12/05 03:42:11;;;;;;;17.77;9.30;;;2.20;99.90;;;;;;5024230;28;20439;-57
2022/12/05 03:44:56;;;;;;;21.43;9.20;;;2.20;99.90;;;;;;5027043;28;20455;-58
2022/12/05 03:47:51;;;;;;;18.47;9.60;;;2.20;99.90;;;;;;5029712;28;20535;-58
2022/12/05 03:50:25;;;;;;;16.03;9.73;;;2.20;99.90;;;;;;5017192;28;20565;-56
2022/12/05 03:52:59;;;;;;;19.10;9.43;;;2.20;99.90;;;;;;5025547;28;20432;-58
2022/12/05 03:55:28;;;;;;;19.13;10.00;;;2.20;99.90;;;;;;5027054;28;20512;-58
2022/12/05 03:58:21;;;;;;;17.67;8.80;;;2.20;99.90;;;;;;5004706;28;20447;-58
2022/12/05 04:00:49;;;;;;;19.93;10.17;;;2.20;99.90;;;;;;5027542;28;20484;-58
2022/12/05 04:03:38;;;;;;;22.80;10.60;;;2.30;99.90;;;;;;5026637;28;20433;-57
2022/12/05 04:06:26;;;;;;;21.77;10.50;;;2.20;99.90;;;;;;5025591;28;20822;-59
2022/12/05 04:09:22;;;;;;;20.20;10.30;;;2.30;99.90;;;;;;5006248;28;20431;-57
2022/12/05 04:11:53;;;;;;;22.43;10.40;;;2.30;99.90;;;;;;5020716;28;20450;-58
2022/12/05 04:14:43;;;;;;;20.67;10.10;;;2.30;99.90;;;;;;5029176;28;20492;-58
2022/12/05 04:17:15;;;;;;;24.07;10.93;;;2.30;99.90;;;;;;5014673;28;20445;-58
2022/12/05 04:22:31;;;;;;;23.00;11.70;;;2.30;99.90;;;;;;5028252;28;20491;-57
2022/12/05 04:27:50;;;;;;;19.27;9.87;;;2.30;99.90;;;;;;5018534;28;20456;-58
2022/12/05 04:30:21;;;;;;;19.57;9.97;;;2.40;99.90;;;;;;5026648;28;20426;-58
2022/12/05 04:32:50;;;;;;;23.27;11.53;;;2.40;99.90;;;;;;5024349;28;21483;-57
2022/12/05 04:35:30;;;;;;;18.83;10.00;;;2.40;99.90;;;;;;5026735;28;20513;-57
2022/12/05 04:38:12;;;;;;;20.90;10.30;;;2.40;99.90;;;;;;5008553;28;20910;-57
2022/12/05 04:40:43;;;;;;;18.80;11.07;;;2.30;99.90;;;;;;5027672;28;20431;-57
2022/12/05 04:43:11;;;;;;;21.90;11.37;;;2.40;99.90;;;;;;5021962;28;20748;-57
2022/12/05 04:45:39;;;;;;;19.67;10.90;;;2.30;99.90;;;;;;5024778;28;20471;-57
2022/12/05 04:48:10;;;;;;;26.50;12.63;;;2.30;99.90;;;;;;5016554;28;20466;-57
2022/12/05 04:50:38;;;;;;;27.50;12.63;;;2.30;99.90;;;;;;5023678;28;20483;-56
2022/12/05 04:53:05;;;;;;;20.83;10.50;;;2.30;99.90;;;;;;5017354;28;20477;-54
2022/12/05 04:55:33;;;;;;;24.33;11.90;;;2.40;99.90;;;;;;5018285;28;20422;-53
2022/12/05 04:58:07;;;;;;;20.17;10.23;;;2.40;99.90;;;;;;5015862;28;21214;-52
2022/12/05 05:00:59;;;;;;;25.37;11.70;;;2.40;99.90;;;;;;4991398;28;20456;-54
2022/12/05 05:03:44;;;;;;;18.00;10.37;;;2.30;99.90;;;;;;5003741;28;21245;-53
2022/12/05 05:06:11;;;;;;;21.77;11.53;;;2.40;99.90;;;;;;5010916;28;20458;-53
2022/12/05 05:08:45;;;;;;;21.83;11.27;;;2.40;99.90;;;;;;5012839;28;20438;-58
2022/12/05 05:11:19;;;;;;;24.40;11.40;;;2.40;99.90;;;;;;5013792;28;20442;-59
2022/12/05 05:13:45;;;;;;;24.93;12.13;;;2.40;99.90;;;;;;4995457;28;21172;-57
2022/12/05 05:16:17;;;;;;;26.80;12.27;;;2.40;99.90;;;;;;5007843;28;20484;-57
2022/12/05 05:18:44;;;;;;;24.50;11.50;;;2.40;99.90;;;;;;5010544;28;20628;-55
2022/12/05 05:21:22;;;;;;;29.67;14.10;;;2.50;99.90;;;;;;5016176;28;20522;-55
2022/12/05 05:23:47;;;;;;;27.70;13.80;;;2.50;99.90;;;;;;4992730;28;20485;-58
2022/12/05 05:26:14;;;;;;;31.73;13.43;;;2.50;99.90;;;;;;5011191;28;20486;-58
2022/12/05 05:28:39;;;;;;;31.70;14.07;;;2.50;99.90;;;;;;5018251;28;20468;-57
2022/12/05 05:31:06;;;;;;;28.47;13.10;;;2.50;99.90;;;;;;5025926;28;20923;-58
2022/12/05 05:33:33;;;;;;;26.80;13.20;;;2.50;99.90;;;;;;5024437;28;20218;-58
2022/12/05 05:36:11;;;;;;;30.83;15.37;;;2.50;99.90;;;;;;5026092;28;20791;-58
2022/12/05 05:38:45;;;;;;;28.37;13.17;;;2.50;99.90;;;;;;5030419;28;20430;-57
2022/12/05 05:41:19;;;;;;;38.53;14.90;;;2.50;99.90;;;;;;5014081;28;20969;-56
2022/12/05 05:43:45;;;;;;;30.23;13.80;;;2.50;99.90;;;;;;5020634;28;21248;-58
2022/12/05 05:46:12;;;;;;;28.10;14.40;;;2.50;99.90;;;;;;5027307;28;20461;-58
2022/12/05 05:48:38;;;;;;;31.23;12.97;;;2.50;99.90;;;;;;5020665;28;20459;-56
2022/12/05 05:51:06;;;;;;;31.07;14.73;;;2.50;99.90;;;;;;5021457;28;20462;-58
2022/12/05 05:53:32;;;;;;;28.47;13.47;;;2.50;99.90;;;;;;5008984;28;20457;-58
2022/12/05 05:56:03;;;;;;;30.90;13.33;;;2.50;99.90;;;;;;5023032;28;20453;-58
2022/12/05 05:58:28;;;;;;;28.53;13.13;;;2.50;99.90;;;;;;5026793;28;20495;-58
2022/12/05 06:00:54;;;;;;;34.40;14.57;;;2.50;99.90;;;;;;5022545;28;20912;-56
2022/12/05 06:03:19;;;;;;;30.30;13.13;;;2.50;99.90;;;;;;5023900;28;20258;-60
2022/12/05 06:05:56;;;;;;;30.07;14.30;;;2.60;99.90;;;;;;5006219;28;20180;-58
2022/12/05 06:08:22;;;;;;;26.60;12.57;;;2.50;99.90;;;;;;5022243;28;20194;-59
2022/12/05 06:10:47;;;;;;;31.63;14.20;;;2.50;99.90;;;;;;5027500;28;20426;-60
2022/12/05 06:13:13;;;;;;;31.07;14.20;;;2.60;99.90;;;;;;5028855;28;20609;-59
2022/12/05 06:15:38;;;;;;;25.07;12.50;;;2.60;99.90;;;;;;5025189;28;20179;-62
2022/12/05 06:18:04;;;;;;;29.10;13.20;;;2.50;99.90;;;;;;5022132;28;20200;-60
2022/12/05 06:20:29;;;;;;;27.50;13.23;;;2.60;99.90;;;;;;5020728;28;20575;-60
2022/12/05 06:22:55;;;;;;;30.00;14.40;;;2.60;99.90;;;;;;5029311;28;20671;-60
2022/12/05 06:25:21;;;;;;;32.23;14.20;;;2.60;99.90;;;;;;5028671;28;20234;-55
2022/12/05 06:27:46;;;;;;;25.77;13.47;;;2.60;99.90;;;;;;5029262;28;20443;-56
2022/12/05 06:30:12;;;;;;;24.43;12.33;;;2.60;99.90;;;;;;5010404;28;20179;-61
2022/12/05 06:32:38;;;;;;;27.87;13.27;;;2.60;99.90;;;;;;5027682;28;20183;-60
2022/12/05 06:35:13;;;;;;;29.23;13.60;;;2.60;99.90;;;;;;5027598;28;20466;-60
2022/12/05 06:37:39;;;;;;;23.80;12.37;;;2.60;99.90;;;;;;5026766;28;20198;-60
2022/12/05 06:40:05;;;;;;;24.40;12.40;;;2.70;99.90;;;;;;5027996;28;20430;-61
2022/12/05 06:42:31;;;;;;;23.00;12.43;;;2.70;99.90;;;;;;5024385;28;20226;-60
2022/12/05 06:44:57;;;;;;;25.00;12.50;;;2.70;99.90;;;;;;5021568;28;20887;-61
2022/12/05 06:47:22;;;;;;;24.50;12.80;;;2.70;99.90;;;;;;5004776;28;20211;-60
2022/12/05 06:49:48;;;;;;;23.47;12.27;;;2.60;99.90;;;;;;5021556;28;20190;-60
2022/12/05 06:52:14;;;;;;;26.37;14.10;;;2.70;99.90;;;;;;5028345;28;20854;-61
2022/12/05 06:54:39;;;;;;;29.70;12.50;;;2.70;99.90;;;;;;5007470;28;20226;-61
2022/12/05 06:57:05;;;;;;;28.23;13.70;;;2.70;99.90;;;;;;5024764;28;20314;-61
2022/12/05 06:59:30;;;;;;;29.37;14.10;;;2.70;99.90;;;;;;5026985;28;20172;-60
2022/12/05 07:01:56;;;;;;;31.63;16.60;;;2.70;99.90;;;;;;5030417;28;20176;-60
2022/12/05 07:04:23;;;;;;;24.03;13.07;;;2.70;99.90;;;;;;5022857;28;20609;-60
2022/12/05 07:06:49;;;;;;;22.03;12.03;;;2.70;99.90;;;;;;5027762;28;20631;-60
2022/12/05 07:09:17;;;;;;;20.33;11.70;;;2.70;99.90;;;;;;5030190;28;20457;-61
2022/12/05 07:11:48;;;;;;;25.53;13.00;;;2.70;99.90;;;;;;5030578;28;20442;-60
2022/12/05 07:14:14;;;;;;;25.60;13.70;;;2.70;99.90;;;;;;5008155;28;20788;-60
2022/12/05 07:16:39;;;;;;;25.20;12.57;;;2.70;99.90;;;;;;5025347;28;20458;-61
2022/12/05 07:19:05;;;;;;;28.30;13.80;;;2.70;99.90;;;;;;5027083;28;20649;-61
2022/12/05 07:21:31;;;;;;;28.53;12.97;;;2.70;99.90;;;;;;5025291;28;20172;-60
2022/12/05 07:23:56;;;;;;;28.50;13.77;;;2.70;99.90;;;;;;5030310;28;20179;-59
2022/12/05 07:26:23;;;;;;;30.50;12.80;;;2.70;99.90;;;;;;5030781;28;20210;-60
2022/12/05 07:29:01;;;;;;;26.03;12.67;;;2.70;99.90;;;;;;5029656;28;20186;-59
2022/12/05 07:31:28;;;;;;;27.03;14.10;;;2.70;99.90;;;;;;5029404;28;20402;-60
2022/12/05 07:33:54;;;;;;;25.17;12.30;;;2.70;99.90;;;;;;5019504;28;20974;-61
2022/12/05 07:36:22;;;;;;;26.90;13.80;;;2.70;99.90;;;;;;5028441;28;20523;-61
2022/12/05 07:38:53;;;;;;;26.33;13.70;;;2.80;99.90;;;;;;5011820;28;20184;-61
2022/12/05 07:41:22;;;;;;;23.97;12.80;;;2.70;99.90;;;;;;5023764;28;20456;-60
2022/12/05 07:43:50;;;;;;;24.27;12.53;;;2.80;99.90;;;;;;5010546;28;20445;-60
2022/12/05 07:46:16;;;;;;;24.90;12.90;;;2.80;99.90;;;;;;5025732;28;20454;-60
2022/12/05 07:48:42;;;;;;;25.40;13.53;;;2.80;99.90;;;;;;5027021;28;20529;-60
2022/12/05 07:51:09;;;;;;;22.60;11.80;;;2.80;99.90;;;;;;5027200;28;20183;-60
2022/12/05 07:53:36;;;;;;;21.33;11.10;;;2.80;99.90;;;;;;5015652;28;20469;-60
2022/12/05 07:56:05;;;;;;;17.17;10.10;;;2.80;99.90;;;;;;5024172;28;20473;-60
2022/12/05 07:58:32;;;;;;;17.60;9.37;;;2.70;99.90;;;;;;5010458;28;20836;-60
2022/12/05 08:01:09;;;;;;;18.47;9.30;;;2.70;99.90;;;;;;5026137;28;20457;-60
2022/12/05 08:03:36;;;;;;;17.77;9.50;;;2.70;99.90;;;;;;5007661;28;20464;-60
2022/12/05 08:06:11;;;;;;;21.93;10.90;;;2.70;99.90;;;;;;5017591;28;20448;-61
2022/12/05 08:08:37;;;;;;;21.07;11.33;;;2.70;99.90;;;;;;5025965;28;20438;-61
2022/12/05 08:11:11;;;;;;;23.20;12.60;;;2.70;99.90;;;;;;5027906;28;20469;-60
2022/12/05 08:13:37;;;;;;;26.10;12.63;;;2.70;99.90;;;;;;5019019;28;20655;-60
2022/12/05 08:16:05;;;;;;;24.30;11.80;;;2.70;99.90;;;;;;5024062;28;20442;-60
2022/12/05 08:18:31;;;;;;;24.53;11.37;;;2.70;99.90;;;;;;5026891;28;20436;-61
2022/12/05 08:21:01;;;;;;;19.30;11.43;;;2.70;99.90;;;;;;5018454;28;20853;-61
2022/12/05 08:23:29;;;;;;;18.80;10.20;;;2.80;99.90;;;;;;5028186;28;20419;-60
2022/12/05 08:25:54;;;;;;;20.53;10.60;;;2.80;99.90;;;;;;5028528;28;20509;-60
2022/12/05 08:28:20;;;;;;;15.73;9.60;;;2.80;99.90;;;;;;5024153;28;20875;-61
2022/12/05 08:30:46;;;;;;;15.47;9.17;;;2.80;99.90;;;;;;5023165;28;20241;-61
2022/12/05 08:33:11;;;;;;;18.93;9.50;;;2.80;99.90;;;;;;5010654;28;20262;-60
2022/12/05 08:35:37;;;;;;;21.63;10.83;;;2.80;99.90;;;;;;5009914;28;20213;-61
2022/12/05 08:38:03;;;;;;;22.07;10.67;;;2.80;99.90;;;;;;5022287;28;20214;-60
2022/12/05 08:40:30;;;;;;;19.70;10.40;;;2.80;99.90;;;;;;5024622;28;20186;-61
2022/12/05 08:42:56;;;;;;;19.50;10.50;;;2.80;99.90;;;;;;5027049;28;20701;-61
2022/12/05 08:45:22;;;;;;;18.50;9.33;;;2.80;99.90;;;;;;5021120;28;21017;-61
2022/12/05 08:47:47;;;;;;;21.07;10.67;;;2.80;99.90;;;;;;5008885;28;20458;-60
2022/12/05 08:50:13;;;;;;;14.20;9.10;;;2.80;99.90;;;;;;5027314;28;20258;-61
2022/12/05 08:52:38;;;;;;;19.60;9.27;;;2.80;99.90;;;;;;5028460;28;20180;-61
2022/12/05 08:55:04;;;;;;;20.37;10.20;;;2.80;99.90;;;;;;5021088;28;20212;-61
2022/12/05 08:57:30;;;;;;;15.13;9.50;;;2.80;99.90;;;;;;5027796;28;20261;-61
2022/12/05 08:59:55;;;;;;;14.30;7.97;;;2.90;99.90;;;;;;5009748;28;20431;-60
2022/12/05 09:02:21;;;;;;;16.13;9.13;;;2.90;99.90;;;;;;5027363;28;20179;-60
2022/12/05 09:04:50;;;;;;;14.60;8.40;;;2.90;99.90;;;;;;5008088;28;20195;-61
2022/12/05 09:07:15;;;;;;;14.60;8.23;;;2.90;99.90;;;;;;5021819;28;20194;-60
2022/12/05 09:09:41;;;;;;;15.10;8.50;;;2.90;99.90;;;;;;5022042;28;20435;-60
2022/12/05 09:12:07;;;;;;;15.43;8.97;;;2.90;99.90;;;;;;5022386;28;20811;-61
2022/12/05 09:14:32;;;;;;;16.17;8.43;;;2.90;99.90;;;;;;5026494;28;20207;-61
2022/12/05 09:16:59;;;;;;;13.50;7.93;;;2.90;99.90;;;;;;5009484;28;20708;-61
2022/12/05 09:19:26;;;;;;;14.10;8.07;;;2.90;99.90;;;;;;5020278;28;20183;-60
2022/12/05 09:21:52;;;;;;;14.47;9.00;;;2.90;99.90;;;;;;5029174;28;20516;-61
2022/12/05 09:24:18;;;;;;;16.47;9.37;;;2.90;99.90;;;;;;5018667;28;21118;-60
2022/12/05 09:26:44;;;;;;;15.77;8.10;;;2.90;99.90;;;;;;5025848;28;20449;-60
2022/12/05 09:29:11;;;;;;;16.77;8.70;;;2.90;99.90;;;;;;5018254;28;20438;-60
2022/12/05 09:31:38;;;;;;;15.53;8.87;;;2.90;99.90;;;;;;5022570;28;20434;-60
2022/12/05 09:34:03;;;;;;;17.17;8.90;;;3.00;99.90;;;;;;5021549;28;20839;-59
2022/12/05 09:36:30;;;;;;;14.93;8.80;;;3.00;99.90;;;;;;5028820;28;20880;-61
2022/12/05 09:39:01;;;;;;;17.27;9.37;;;3.00;99.90;;;;;;5011590;28;20175;-61
2022/12/05 09:42:03;;;;;;;14.27;8.07;;;3.00;99.90;;;;;;5022123;28;20434;-61
2022/12/05 09:44:52;;;;;;;15.40;8.27;;;3.00;99.90;;;;;;5017958;28;20874;-61
2022/12/05 09:47:35;;;;;;;13.00;7.50;;;3.00;99.90;;;;;;5023372;28;20529;-61
2022/12/05 09:50:29;;;;;;;16.57;8.80;;;3.10;99.90;;;;;;5007856;28;20464;-60
2022/12/05 09:53:15;;;;;;;17.13;8.83;;;3.10;99.90;;;;;;4998650;28;20465;-61
2022/12/05 09:55:50;;;;;;;19.93;9.23;;;3.20;99.90;;;;;;5027083;28;20449;-61
2022/12/05 09:58:37;;;;;;;16.47;8.97;;;3.30;99.90;;;;;;5020582;28;20497;-61
2022/12/05 10:01:20;;;;;;;15.93;9.37;;;3.30;99.90;;;;;;5011200;28;20419;-60
2022/12/05 10:03:59;;;;;;;15.87;8.80;;;3.30;99.90;;;;;;5028143;28;20457;-60
2022/12/05 10:06:32;;;;;;;14.63;7.60;;;3.30;99.90;;;;;;5007888;28;21341;-61
2022/12/05 10:09:07;;;;;;;12.00;7.87;;;3.30;99.90;;;;;;5030115;28;20416;-61
2022/12/05 10:11:48;;;;;;;17.03;8.80;;;3.30;99.90;;;;;;5011584;28;20410;-61
2022/12/05 10:14:43;;;;;;;22.13;9.00;;;3.30;99.90;;;;;;5021335;28;20585;-61
2022/12/05 10:17:17;;;;;;;20.47;10.63;;;3.30;99.90;;;;;;5031315;28;20435;-60
2022/12/05 10:19:46;;;;;;;18.17;10.47;;;3.30;99.90;;;;;;5028349;28;20855;-60
2022/12/05 10:22:24;;;;;;;20.63;10.00;;;3.30;99.90;;;;;;5005915;28;20422;-61
2022/12/05 10:25:02;;;;;;;20.77;10.20;;;3.30;99.90;;;;;;5031567;28;20442;-60
2022/12/05 10:27:36;;;;;;;14.87;9.00;;;3.30;99.90;;;;;;5028384;28;20462;-60
2022/12/05 10:30:04;;;;;;;17.20;9.37;;;3.30;99.90;;;;;;5031281;28;20495;-61
2022/12/05 10:33:07;;;;;;;21.00;11.30;;;3.30;99.90;;;;;;5013803;28;20489;-60
2022/12/05 10:35:36;;;;;;;21.60;10.77;;;3.30;99.90;;;;;;4966571;28;20478;-60
2022/12/05 10:38:09;;;;;;;21.20;11.83;;;3.30;99.90;;;;;;5002657;28;20494;-61
2022/12/05 10:40:41;;;;;;;22.47;9.83;;;3.40;99.90;;;;;;5025129;28;20426;-60
2022/12/05 10:43:12;;;;;;;23.03;13.03;;;3.40;99.90;;;;;;5027040;28;20525;-61
2022/12/05 10:45:43;;;;;;;20.13;10.80;;;3.40;99.90;;;;;;5031351;28;20441;-60
2022/12/05 10:48:11;;;;;;;19.13;10.10;;;3.40;99.90;;;;;;5028783;28;20545;-61
2022/12/05 10:50:38;;;;;;;17.60;9.70;;;3.50;99.90;;;;;;5028481;28;21064;-61
2022/12/05 10:53:05;;;;;;;17.23;9.30;;;3.40;99.90;;;;;;5023182;28;20441;-60
2022/12/05 10:55:43;;;;;;;14.13;8.67;;;3.40;99.90;;;;;;5028501;28;20498;-60
2022/12/05 10:58:12;;;;;;;14.90;8.70;;;3.50;99.90;;;;;;5029766;28;20450;-61
2022/12/05 11:00:43;;;;;;;14.50;7.70;;;3.50;99.90;;;;;;5009658;28;21294;-60
2022/12/05 11:03:20;;;;;;;17.27;8.23;;;3.60;99.90;;;;;;5030214;28;20426;-60
2022/12/05 11:05:49;;;;;;;13.87;8.33;;;3.60;99.90;;;;;;5020469;28;20435;-60
2022/12/05 11:08:23;;;;;;;15.33;8.87;;;3.60;99.90;;;;;;5031428;28;20936;-61
2022/12/05 11:11:16;;;;;;;12.77;7.60;;;3.60;99.90;;;;;;5025397;28;20421;-61
2022/12/05 11:13:56;;;;;;;11.30;7.20;;;3.60;99.90;;;;;;5024268;28;20525;-61
2022/12/05 11:16:25;;;;;;;10.90;7.10;;;3.70;99.90;;;;;;5028362;28;20442;-61
2022/12/05 11:18:51;;;;;;;11.70;7.33;;;3.70;99.90;;;;;;5028076;28;20438;-61
2022/12/05 11:21:18;;;;;;;10.90;7.00;;;3.70;99.90;;;;;;5022450;28;20438;-58
2022/12/05 11:23:46;;;;;;;10.00;6.67;;;3.70;99.90;;;;;;5022161;28;20441;-61
2022/12/05 11:26:32;;;;;;;12.07;7.13;;;3.70;99.90;;;;;;5021548;28;20539;-60
2022/12/05 11:28:58;;;;;;;12.17;6.97;;;3.70;99.90;;;;;;5029383;28;20532;-60
2022/12/05 11:31:29;;;;;;;11.33;6.47;;;3.70;99.90;;;;;;5023481;28;20522;-62
2022/12/05 11:34:17;;;;;;;11.37;6.80;;;3.70;99.90;;;;;;5025669;28;20203;-60
2022/12/05 11:36:49;;;;;;;11.53;6.87;;;3.70;99.90;;;;;;5029472;28;20461;-59
2022/12/05 11:39:15;;;;;;;12.50;6.50;;;3.80;99.90;;;;;;5023241;28;20422;-60
2022/12/05 11:42:04;;;;;;;10.50;6.20;;;3.80;99.90;;;;;;5018139;28;20431;-62
2022/12/05 11:44:53;;;;;;;12.03;7.00;;;3.80;99.90;;;;;;5022862;28;20458;-60
2022/12/05 11:47:40;;;;;;;11.37;6.60;;;3.90;99.90;;;;;;5026873;28;20458;-60
2022/12/05 11:50:21;;;;;;;8.27;6.00;;;3.90;99.90;;;;;;5023212;28;20946;-59
2022/12/05 11:53:05;;;;;;;11.73;6.90;;;3.90;99.90;;;;;;5024240;28;20480;-60
2022/12/05 11:56:05;;;;;;;10.10;6.87;;;3.90;99.90;;;;;;5023132;28;20982;-60
2022/12/05 11:58:45;;;;;;;11.57;7.13;;;3.90;99.90;;;;;;4997521;28;20439;-59
2022/12/05 12:01:45;;;;;;;11.10;6.57;;;4.00;99.90;;;;;;5016599;28;20477;-59
2022/12/05 12:04:51;;;;;;;11.20;6.40;;;4.00;99.90;;;;;;5014573;28;20517;-60
2022/12/05 12:07:22;;;;;;;13.00;7.97;;;4.00;99.90;;;;;;4972700;28;21746;-60
2022/12/05 12:09:51;;;;;;;8.83;6.03;;;4.00;99.90;;;;;;5016066;28;20441;-60
2022/12/05 12:12:35;;;;;;;7.90;5.90;;;3.90;99.90;;;;;;5028513;28;20492;-62
2022/12/05 12:15:06;;;;;;;9.13;6.73;;;3.90;99.90;;;;;;5018808;28;20470;-61
2022/12/05 12:17:50;;;;;;;11.57;7.57;;;3.90;99.90;;;;;;5013931;28;20477;-61
2022/12/05 12:20:33;;;;;;;10.60;7.30;;;3.90;99.90;;;;;;5004246;28;20458;-60
2022/12/05 12:23:21;;;;;;;12.10;6.90;;;4.00;99.90;;;;;;5019222;28;20426;-64
2022/12/05 12:25:55;;;;;;;12.20;7.90;;;4.00;99.90;;;;;;5020172;28;20430;-59
2022/12/05 12:28:23;;;;;;;12.63;7.10;;;4.00;99.90;;;;;;5013845;28;20453;-61
2022/12/05 12:31:01;;;;;;;12.43;7.30;;;4.00;99.90;;;;;;5009476;28;20430;-60
2022/12/05 12:33:30;;;;;;;11.77;7.20;;;4.10;99.90;;;;;;4998870;28;20521;-61
2022/12/05 12:35:58;;;;;;;12.60;7.93;;;4.10;99.90;;;;;;5017055;28;20446;-61
2022/12/05 12:38:52;;;;;;;11.27;6.53;;;4.10;99.90;;;;;;5016769;28;20434;-61
2022/12/05 12:41:23;;;;;;;11.40;6.40;;;4.10;99.90;;;;;;4991253;28;20431;-62
2022/12/05 12:44:22;;;;;;;11.17;7.10;;;4.20;99.90;;;;;;5020008;28;20460;-61
2022/12/05 12:46:58;;;;;;;11.17;6.50;;;4.20;99.90;;;;;;5023746;28;20489;-61
2022/12/05 12:49:24;;;;;;;10.43;6.47;;;4.30;99.90;;;;;;5023957;28;20552;-61
2022/12/05 12:52:02;;;;;;;12.47;7.40;;;4.30;99.90;;;;;;5002861;28;20998;-61
2022/12/05 12:54:52;;;;;;;9.70;6.83;;;4.20;99.90;;;;;;5017479;28;20476;-61
2022/12/05 12:57:30;;;;;;;17.10;8.43;;;4.30;99.90;;;;;;5005877;28;20557;-61
2022/12/05 13:00:26;;;;;;;12.47;7.53;;;4.30;99.90;;;;;;4999994;28;20457;-62
2022/12/05 13:03:01;;;;;;;9.37;7.03;;;4.30;99.90;;;;;;5000147;28;20429;-61
2022/12/05 13:05:50;;;;;;;13.70;7.37;;;4.30;99.90;;;;;;5001142;28;20510;-61
2022/12/05 13:08:22;;;;;;;10.13;6.07;;;4.20;99.90;;;;;;5024948;28;20430;-61
2022/12/05 13:10:48;;;;;;;11.17;6.73;;;4.20;99.90;;;;;;5025461;28;20449;-60
2022/12/05 13:13:19;;;;;;;11.50;7.33;;;4.20;99.90;;;;;;5026389;28;20434;-61